Aviation Digital Data Service (ADDS)

Output produced by METARs form (0225 UTC 16 January 2019)
found at http://www.aviationweather.gov/metar/data/
 
MNBL 152100Z 1600/1624 09012G22KT 8000 VCRA SCT017 SCT070 
     TEMPO 1606/1612 06010KT 7000 VCRA BKN017
       
MNMG 152100Z 1600/1624 08014G24KT 9999 FEW026 
     TEMPO 1606/1612 09010KT FEW028 
     BECMG 1614/1618 07018G28KT
       
MNPC 152100Z 1600/1624 05012KT 7000 HZ SCT016 
     FM160500 36010KT 7000 VCRA/HZ BKN016